Time;durP1;ratioP1;P1;durP2;ratioP2;P2;SDS_P1;SDS_P2;PMS_P1;PMS_P2;Temp;Humidity;BMP_temperature;BMP_pressure;BME280_temperature;BME280_humidity;BME280_pressure;Samples;Min_cycle;Max_cycle;Signal;HPM_P1;HPM_P2
2022/05/16 00:01:34;;;;;;;8.35;2.60;;;20.90;47.00;;;;;;5133239;27;20027;-64
2022/05/16 00:03:59;;;;;;;8.65;2.95;;;20.90;47.10;;;;;;5115852;28;20027;-63
2022/05/16 00:06:25;;;;;;;10.65;2.95;;;20.80;47.10;;;;;;5113452;28;20042;-63
2022/05/16 00:08:51;;;;;;;7.72;2.83;;;20.80;47.20;;;;;;5124740;28;20027;-63
2022/05/16 00:11:17;;;;;;;10.18;3.00;;;20.80;47.30;;;;;;5134353;28;20031;-64
2022/05/16 00:13:43;;;;;;;9.90;2.97;;;20.70;47.40;;;;;;5117140;28;20128;-63
2022/05/16 00:16:09;;;;;;;7.93;2.63;;;20.70;47.50;;;;;;5133959;27;20027;-64
2022/05/16 00:18:36;;;;;;;7.60;2.58;;;20.70;47.60;;;;;;5133104;27;20027;-64
2022/05/16 00:21:01;;;;;;;10.13;3.47;;;20.70;47.70;;;;;;5130510;28;20423;-64
2022/05/16 00:23:27;;;;;;;9.70;3.13;;;20.60;47.90;;;;;;5117225;27;20092;-63
2022/05/16 00:25:52;;;;;;;8.27;3.00;;;20.60;48.00;;;;;;5129465;27;20505;-64
2022/05/16 00:28:18;;;;;;;7.40;2.70;;;20.60;48.10;;;;;;5134832;27;20070;-65
2022/05/16 00:30:43;;;;;;;10.93;3.10;;;20.60;48.30;;;;;;5133471;27;20126;-65
2022/05/16 00:33:09;;;;;;;8.90;2.95;;;20.50;48.30;;;;;;5123783;27;20371;-65
2022/05/16 00:35:35;;;;;;;10.90;3.75;;;20.50;48.40;;;;;;5130236;27;20049;-65
2022/05/16 00:38:00;;;;;;;11.15;3.10;;;20.50;48.50;;;;;;5132230;27;20027;-65
2022/05/16 00:40:26;;;;;;;9.52;3.03;;;20.50;48.60;;;;;;5131851;27;20439;-65
2022/05/16 00:43:02;;;;;;;8.60;2.58;;;20.40;48.70;;;;;;5130431;27;20110;-65
2022/05/16 00:45:28;;;;;;;9.27;3.22;;;20.40;48.90;;;;;;5133920;27;20049;-65
2022/05/16 00:47:54;;;;;;;8.43;3.13;;;20.40;48.90;;;;;;5118505;27;20031;-65
2022/05/16 00:50:20;;;;;;;9.40;3.00;;;20.40;49.10;;;;;;5133368;27;20026;-65
2022/05/16 00:52:49;;;;;;;14.73;3.30;;;20.30;49.10;;;;;;5136412;27;20025;-65
2022/05/16 00:55:20;;;;;;;8.65;3.05;;;20.30;49.10;;;;;;5125756;27;20282;-65
2022/05/16 00:57:50;;;;;;;8.25;2.60;;;20.30;49.20;;;;;;5136575;27;20467;-65
2022/05/16 01:00:27;;;;;;;9.13;3.85;;;20.30;49.30;;;;;;5127353;27;20031;-65
2022/05/16 01:05:41;;;;;;;9.65;2.92;;;20.20;49.40;;;;;;5133350;27;20054;-65
2022/05/16 01:08:16;;;;;;;10.93;3.30;;;20.20;49.40;;;;;;5126118;27;20037;-65
2022/05/16 01:10:42;;;;;;;9.90;3.65;;;20.20;49.60;;;;;;5127174;27;20434;-65
2022/05/16 01:13:08;;;;;;;8.13;3.50;;;20.20;49.70;;;;;;5124069;27;20107;-65
2022/05/16 01:15:44;;;;;;;10.35;3.15;;;20.10;49.70;;;;;;5118531;27;20084;-65
2022/05/16 01:18:12;;;;;;;8.85;3.20;;;20.10;49.80;;;;;;5120212;27;20023;-65
2022/05/16 01:20:50;;;;;;;10.18;2.85;;;20.10;50.00;;;;;;5133055;27;20042;-65
2022/05/16 01:23:20;;;;;;;9.70;3.10;;;20.10;50.10;;;;;;5123194;27;20036;-65
2022/05/16 01:25:48;;;;;;;9.68;3.35;;;20.00;50.10;;;;;;5125010;27;20039;-65
2022/05/16 01:28:17;;;;;;;10.30;3.20;;;20.00;50.10;;;;;;5134969;27;20413;-65
2022/05/16 01:30:47;;;;;;;10.40;3.65;;;20.00;50.10;;;;;;5132518;27;20029;-65
2022/05/16 01:33:20;;;;;;;9.27;2.90;;;20.00;50.20;;;;;;5123307;27;20464;-65
2022/05/16 01:35:47;;;;;;;11.00;3.13;;;20.00;50.20;;;;;;5123914;27;20402;-65
2022/05/16 01:38:19;;;;;;;9.05;3.22;;;20.00;50.20;;;;;;5127498;27;20063;-65
2022/05/16 01:40:46;;;;;;;12.23;3.38;;;20.00;50.20;;;;;;5123426;27;20456;-65
2022/05/16 01:43:12;;;;;;;10.85;3.50;;;20.00;50.30;;;;;;5117587;27;20063;-65
2022/05/16 01:45:43;;;;;;;9.73;3.00;;;19.90;50.30;;;;;;5115999;27;20039;-65
2022/05/16 01:48:11;;;;;;;8.80;2.88;;;19.90;50.50;;;;;;5128500;27;20110;-65
2022/05/16 01:50:37;;;;;;;7.32;2.40;;;19.90;50.60;;;;;;5120069;27;20023;-65
2022/05/16 01:53:03;;;;;;;9.32;3.08;;;19.90;50.50;;;;;;5132655;27;20520;-65
2022/05/16 01:55:29;;;;;;;9.40;3.25;;;19.90;50.50;;;;;;5132158;27;20390;-65
2022/05/16 01:57:55;;;;;;;8.98;3.08;;;19.90;50.60;;;;;;5122202;27;20024;-65
2022/05/16 02:00:21;;;;;;;11.23;3.30;;;19.80;50.60;;;;;;5131514;27;20019;-65
2022/05/16 02:02:47;;;;;;;11.68;3.55;;;19.80;50.70;;;;;;5126477;27;20035;-65
2022/05/16 02:05:16;;;;;;;10.40;3.28;;;19.80;50.70;;;;;;5133545;27;20031;-65
2022/05/16 02:07:42;;;;;;;9.15;2.97;;;19.80;51.50;;;;;;5128708;27;20039;-65
2022/05/16 02:10:10;;;;;;;20.63;3.40;;;19.80;50.90;;;;;;5135451;27;20153;-65
2022/05/16 02:12:36;;;;;;;10.02;3.40;;;19.70;50.90;;;;;;5121765;27;20031;-65
2022/05/16 02:15:03;;;;;;;10.38;3.70;;;19.70;50.90;;;;;;5115232;28;20020;-64
2022/05/16 02:17:29;;;;;;;8.05;3.55;;;19.70;51.00;;;;;;5121985;27;20465;-65
2022/05/16 02:19:54;;;;;;;10.23;3.55;;;19.70;51.00;;;;;;5124104;27;20055;-65
2022/05/16 02:25:05;;;;;;;12.07;3.33;;;19.70;51.00;;;;;;5116167;28;20032;-65
2022/05/16 02:27:31;;;;;;;10.75;3.72;;;19.60;51.00;;;;;;5131478;27;20050;-65
2022/05/16 02:29:57;;;;;;;10.93;3.33;;;19.70;51.20;;;;;;5135011;27;20020;-65
2022/05/16 02:32:23;;;;;;;9.02;3.42;;;19.60;51.10;;;;;;5122727;27;20428;-65
2022/05/16 02:34:49;;;;;;;9.18;3.15;;;19.60;51.30;;;;;;5117047;28;20390;-65
2022/05/16 02:37:15;;;;;;;10.13;3.40;;;19.60;51.30;;;;;;5129186;27;20166;-65
2022/05/16 02:39:45;;;;;;;10.88;3.85;;;19.60;51.40;;;;;;5133804;27;20038;-65
2022/05/16 02:42:14;;;;;;;9.00;3.30;;;19.60;51.50;;;;;;5119400;27;20031;-65
2022/05/16 02:44:42;;;;;;;12.67;3.43;;;19.60;51.50;;;;;;5115859;28;20063;-65
2022/05/16 02:47:11;;;;;;;10.05;3.42;;;19.50;51.50;;;;;;5126624;27;20340;-65
2022/05/16 02:49:37;;;;;;;10.07;3.38;;;19.50;51.50;;;;;;5133484;27;20482;-65
2022/05/16 02:52:02;;;;;;;9.63;3.80;;;19.50;51.60;;;;;;5127485;27;20023;-65
2022/05/16 02:54:28;;;;;;;7.38;3.00;;;19.50;51.60;;;;;;5122810;27;20020;-65
2022/05/16 02:56:53;;;;;;;7.55;3.10;;;19.50;51.60;;;;;;5118064;27;20110;-65
2022/05/16 02:59:19;;;;;;;7.90;3.33;;;19.50;51.70;;;;;;5119094;27;20035;-65
2022/05/16 03:01:45;;;;;;;9.60;3.80;;;19.40;51.60;;;;;;5119257;27;20051;-65
2022/05/16 03:04:10;;;;;;;9.45;3.50;;;19.50;51.70;;;;;;5123233;27;20036;-65
2022/05/16 03:06:36;;;;;;;10.70;3.85;;;19.40;51.70;;;;;;5126446;27;20035;-65
2022/05/16 03:09:02;;;;;;;9.10;3.25;;;19.40;51.90;;;;;;5133160;27;20113;-65
2022/05/16 03:11:29;;;;;;;10.52;3.70;;;19.40;51.90;;;;;;5133346;27;20012;-65
2022/05/16 03:13:55;;;;;;;8.80;3.33;;;19.40;52.00;;;;;;5119376;27;20092;-65
2022/05/16 03:16:21;;;;;;;9.13;3.65;;;19.40;52.10;;;;;;5115176;28;20039;-65
2022/05/16 03:18:46;;;;;;;8.25;3.25;;;19.40;52.20;;;;;;5123715;27;20066;-65
2022/05/16 03:21:12;;;;;;;10.15;3.63;;;19.30;52.20;;;;;;5114495;28;20028;-65
2022/05/16 03:23:38;;;;;;;9.50;3.45;;;19.30;52.20;;;;;;5131503;27;20055;-65
2022/05/16 03:26:04;;;;;;;11.25;3.50;;;19.30;52.30;;;;;;5122440;27;20173;-65
2022/05/16 03:28:30;;;;;;;9.50;3.42;;;19.30;52.30;;;;;;5123857;27;20109;-65
2022/05/16 03:30:57;;;;;;;10.65;3.67;;;19.30;52.40;;;;;;5134037;27;20470;-65
2022/05/16 03:33:24;;;;;;;7.88;3.10;;;19.30;52.50;;;;;;5124131;27;20028;-65
2022/05/16 03:35:55;;;;;;;9.55;3.47;;;19.20;52.50;;;;;;5135446;27;20062;-65
2022/05/16 03:41:09;;;;;;;7.95;3.08;;;19.20;52.70;;;;;;5133937;28;20032;-64
2022/05/16 03:43:37;;;;;;;10.50;3.67;;;19.20;52.90;;;;;;5117852;28;20020;-65
2022/05/16 03:46:03;;;;;;;10.18;3.80;;;19.20;52.90;;;;;;5114704;28;20038;-65
2022/05/16 03:48:29;;;;;;;11.43;3.70;;;19.10;52.90;;;;;;5127795;28;20030;-65
2022/05/16 03:50:54;;;;;;;9.02;3.40;;;19.10;53.00;;;;;;5125207;27;20031;-65
2022/05/16 03:53:20;;;;;;;9.70;3.55;;;19.10;53.00;;;;;;5120227;28;20045;-65
2022/05/16 03:55:46;;;;;;;11.07;3.70;;;19.10;53.10;;;;;;5135107;27;20035;-65
2022/05/16 03:58:12;;;;;;;6.43;3.13;;;19.10;53.10;;;;;;5125695;27;20038;-65
2022/05/16 04:00:38;;;;;;;7.78;3.25;;;19.10;53.20;;;;;;5135730;27;20417;-65
2022/05/16 04:03:03;;;;;;;10.30;3.30;;;19.10;53.20;;;;;;5129047;27;20114;-65
2022/05/16 04:05:29;;;;;;;8.88;3.65;;;19.00;53.20;;;;;;5134341;27;20436;-65
2022/05/16 04:07:54;;;;;;;8.48;3.25;;;19.00;53.20;;;;;;5135806;27;20042;-65
2022/05/16 04:10:20;;;;;;;8.68;3.50;;;19.00;53.40;;;;;;5133617;27;20083;-65
2022/05/16 04:12:46;;;;;;;10.15;3.53;;;19.10;53.40;;;;;;5122554;27;20107;-65
2022/05/16 04:15:13;;;;;;;10.27;3.85;;;19.00;53.40;;;;;;5121062;27;20434;-65
2022/05/16 04:17:39;;;;;;;10.27;3.67;;;19.00;53.40;;;;;;5123192;27;20027;-65
2022/05/16 04:20:06;;;;;;;9.73;3.55;;;19.00;53.50;;;;;;5137234;27;20051;-65
2022/05/16 04:22:33;;;;;;;8.63;3.58;;;19.00;53.50;;;;;;5128282;27;20106;-65
2022/05/16 04:24:59;;;;;;;8.50;3.58;;;19.00;53.70;;;;;;5125124;27;20024;-65
2022/05/16 04:27:24;;;;;;;8.07;3.70;;;19.00;53.60;;;;;;5129420;27;20042;-65
2022/05/16 04:29:50;;;;;;;8.40;3.65;;;19.00;53.60;;;;;;5126735;27;20027;-65
2022/05/16 04:32:15;;;;;;;6.65;3.28;;;19.00;53.70;;;;;;5127098;27;20484;-65
2022/05/16 04:34:41;;;;;;;8.02;3.03;;;19.00;53.70;;;;;;5124666;27;20038;-65
2022/05/16 04:37:07;;;;;;;9.00;3.47;;;19.10;53.90;;;;;;5117431;27;20092;-64
2022/05/16 04:39:32;;;;;;;7.90;3.65;;;19.00;53.80;;;;;;5122298;27;20031;-65
2022/05/16 04:44:43;;;;;;;7.93;3.55;;;19.00;53.90;;;;;;5127033;27;20150;-65
2022/05/16 04:47:10;;;;;;;10.05;3.88;;;19.00;53.90;;;;;;5136720;27;20114;-65
2022/05/16 04:49:36;;;;;;;8.18;4.05;;;19.00;54.00;;;;;;5120378;27;20023;-65
2022/05/16 04:52:02;;;;;;;9.20;4.10;;;19.00;54.20;;;;;;5123890;27;20091;-65
2022/05/16 04:54:28;;;;;;;8.73;3.85;;;19.00;54.30;;;;;;5132654;27;20437;-65
2022/05/16 04:56:54;;;;;;;8.75;3.80;;;19.10;54.40;;;;;;5120490;27;20042;-65
2022/05/16 04:59:21;;;;;;;8.50;3.90;;;19.10;54.40;;;;;;5118211;27;20023;-65
2022/05/16 05:01:47;;;;;;;10.15;3.85;;;19.20;54.30;;;;;;5118363;27;20451;-64
2022/05/16 05:04:13;;;;;;;12.68;4.50;;;19.10;54.40;;;;;;5124455;27;20035;-64
2022/05/16 05:06:39;;;;;;;12.25;4.47;;;19.20;54.60;;;;;;5129783;27;20359;-64
2022/05/16 05:09:06;;;;;;;8.48;4.20;;;19.20;54.50;;;;;;5137208;27;20332;-64
2022/05/16 05:14:34;;;;;;;9.10;3.60;;;19.30;54.40;;;;;;5136047;27;20075;-64
2022/05/16 05:17:05;;;;;;;9.32;4.30;;;19.30;54.40;;;;;;5134548;27;20031;-64
2022/05/16 05:19:31;;;;;;;;;;;19.50;54.10;;;;;;5133896;27;20462;-64
2022/05/16 05:21:57;;;;;;;9.35;3.05;;;19.70;53.60;;;;;;5135501;27;19907;-64
2022/05/16 05:24:23;;;;;;;10.30;3.55;;;19.80;53.40;;;;;;5137736;27;20385;-64
2022/05/16 05:26:49;;;;;;;10.57;4.22;;;19.80;53.30;;;;;;5131473;27;20032;-64
2022/05/16 05:29:16;;;;;;;9.45;3.63;;;19.90;53.30;;;;;;5119144;27;20080;-64
2022/05/16 05:31:42;;;;;;;9.35;3.70;;;20.00;53.30;;;;;;5135988;27;20159;-64
2022/05/16 05:34:11;;;;;;;9.52;3.47;;;20.10;53.30;;;;;;5134010;27;20027;-64
2022/05/16 05:36:38;;;;;;;10.65;4.15;;;20.20;53.20;;;;;;5134939;27;20082;-64
2022/05/16 05:39:05;;;;;;;8.95;4.20;;;20.30;53.10;;;;;;5124299;27;20437;-64
2022/05/16 05:41:31;;;;;;;6.93;3.50;;;20.40;52.90;;;;;;5124793;27;20031;-64
2022/05/16 05:43:57;;;;;;;9.57;3.95;;;20.50;52.90;;;;;;5129804;27;20038;-65
2022/05/16 05:46:23;;;;;;;12.68;4.00;;;20.60;52.80;;;;;;5137334;27;20031;-66
2022/05/16 05:48:48;;;;;;;8.10;3.67;;;20.80;52.60;;;;;;5130249;27;20027;-65
2022/05/16 05:51:14;;;;;;;8.88;3.75;;;20.90;52.40;;;;;;5122554;27;20084;-64
2022/05/16 05:53:41;;;;;;;11.30;4.10;;;21.00;52.20;;;;;;5128013;27;20027;-64
2022/05/16 05:56:08;;;;;;;8.68;3.78;;;21.00;52.10;;;;;;5137453;27;20065;-64
2022/05/16 05:58:34;;;;;;;10.23;4.03;;;20.90;52.30;;;;;;5122284;27;20028;-66
2022/05/16 06:01:00;;;;;;;8.43;3.67;;;20.90;52.50;;;;;;5127642;27;20023;-65
2022/05/16 06:03:27;;;;;;;10.27;4.22;;;20.90;52.70;;;;;;5135955;27;20346;-65
2022/05/16 06:05:53;;;;;;;11.57;3.67;;;20.90;52.90;;;;;;5133825;27;20031;-64
2022/05/16 06:08:19;;;;;;;9.45;4.25;;;20.80;53.00;;;;;;5135324;27;20277;-65
2022/05/16 06:10:45;;;;;;;9.98;4.35;;;20.80;53.20;;;;;;5136368;27;20030;-65
2022/05/16 06:13:11;;;;;;;9.82;4.45;;;20.80;53.20;;;;;;5125994;27;20067;-64
2022/05/16 06:15:36;;;;;;;10.73;4.53;;;20.80;53.40;;;;;;5117306;27;20107;-66
2022/05/16 06:18:02;;;;;;;10.45;4.57;;;20.90;53.30;;;;;;5117507;27;20585;-65
2022/05/16 06:20:28;;;;;;;10.20;4.10;;;20.90;53.10;;;;;;5127527;27;20019;-65
2022/05/16 06:22:54;;;;;;;9.75;3.95;;;20.90;53.00;;;;;;5118288;27;20096;-65
2022/05/16 06:25:33;;;;;;;11.40;4.57;;;20.90;53.10;;;;;;5119060;27;20062;-65
2022/05/16 06:28:00;;;;;;;10.95;5.03;;;20.80;53.20;;;;;;5122464;27;20466;-65
2022/05/16 06:30:26;;;;;;;8.23;4.25;;;20.80;53.20;;;;;;5120206;27;20030;-65
2022/05/16 06:32:52;;;;;;;9.95;4.40;;;20.80;53.10;;;;;;5121958;27;20156;-65
2022/05/16 06:35:18;;;;;;;13.73;4.22;;;20.80;53.20;;;;;;5124438;27;20106;-66
2022/05/16 06:37:44;;;;;;;10.02;4.35;;;20.70;53.30;;;;;;5119564;27;20115;-65
2022/05/16 06:40:11;;;;;;;17.13;4.93;;;20.70;53.50;;;;;;5119337;27;20073;-65
2022/05/16 06:42:37;;;;;;;7.90;4.15;;;20.70;53.70;;;;;;5118137;27;20115;-65
2022/05/16 06:45:04;;;;;;;9.43;4.05;;;20.70;53.70;;;;;;5127598;27;20077;-65
2022/05/16 06:47:30;;;;;;;10.18;4.43;;;20.80;53.70;;;;;;5116881;27;20134;-65
2022/05/16 06:49:55;;;;;;;7.10;3.55;;;20.80;53.60;;;;;;5128013;27;20379;-66
2022/05/16 06:52:21;;;;;;;9.82;4.22;;;20.90;53.50;;;;;;5119300;27;20106;-65
2022/05/16 06:54:47;;;;;;;9.38;4.55;;;21.10;53.40;;;;;;5129215;27;20023;-65
2022/05/16 06:57:13;;;;;;;9.57;4.28;;;21.20;53.30;;;;;;5125829;27;20574;-65
2022/05/16 06:59:38;;;;;;;11.85;4.63;;;21.40;53.10;;;;;;5117001;27;20072;-67
2022/05/16 07:02:06;;;;;;;11.25;5.00;;;21.70;52.70;;;;;;5133758;27;20038;-66
2022/05/16 07:04:32;;;;;;;10.07;4.72;;;21.90;52.30;;;;;;5128015;27;20034;-66
2022/05/16 07:06:58;;;;;;;10.07;4.60;;;21.90;52.30;;;;;;5134056;27;20145;-67
2022/05/16 07:09:24;;;;;;;10.00;4.85;;;21.90;52.30;;;;;;5122022;27;20130;-66
2022/05/16 07:11:49;;;;;;;10.25;4.80;;;21.80;52.40;;;;;;5145806;27;20034;-66
2022/05/16 07:14:15;;;;;;;13.73;5.00;;;21.70;52.60;;;;;;5130820;27;20019;-66
2022/05/16 07:16:41;;;;;;;9.80;4.22;;;21.70;52.70;;;;;;5120251;27;20063;-66
2022/05/16 07:19:07;;;;;;;12.48;4.95;;;21.70;52.70;;;;;;5120438;27;20063;-66
2022/05/16 07:21:33;;;;;;;10.65;4.53;;;21.80;52.80;;;;;;5125440;27;20031;-66
2022/05/16 07:23:59;;;;;;;11.30;4.35;;;21.70;52.70;;;;;;5115593;27;20024;-66
2022/05/16 07:29:08;;;;;;;9.57;4.47;;;21.70;52.90;;;;;;5119538;27;20486;-66
2022/05/16 07:31:36;;;;;;;9.25;3.90;;;21.80;52.80;;;;;;5132492;27;20110;-65
2022/05/16 07:34:02;;;;;;;12.77;4.65;;;21.80;52.70;;;;;;5131727;27;20027;-65
2022/05/16 07:36:28;;;;;;;9.85;4.35;;;21.80;52.70;;;;;;5115296;28;20047;-66
2022/05/16 07:38:54;;;;;;;8.13;4.00;;;21.80;52.80;;;;;;5123417;27;20038;-66
2022/05/16 07:41:19;;;;;;;11.07;4.38;;;21.80;52.80;;;;;;5126753;27;20421;-64
2022/05/16 07:43:45;;;;;;;10.25;4.68;;;21.80;52.90;;;;;;5116027;28;20039;-64
2022/05/16 07:46:11;;;;;;;10.95;3.83;;;21.70;53.10;;;;;;5120570;27;20463;-64
2022/05/16 07:48:36;;;;;;;10.02;4.00;;;21.70;53.20;;;;;;5116446;27;20380;-65
2022/05/16 07:51:02;;;;;;;10.45;4.40;;;21.70;53.20;;;;;;5131047;28;20027;-65
2022/05/16 07:53:28;;;;;;;8.80;4.40;;;21.70;53.40;;;;;;5130348;27;20015;-66
2022/05/16 07:55:56;;;;;;;13.25;4.93;;;21.60;54.20;;;;;;5122338;28;20113;-65
2022/05/16 07:58:23;;;;;;;11.80;4.63;;;21.60;54.10;;;;;;5124751;27;20027;-66
2022/05/16 08:00:50;;;;;;;9.52;4.40;;;21.50;54.30;;;;;;5136945;27;20036;-66
2022/05/16 08:03:18;;;;;;;9.40;4.82;;;21.50;54.70;;;;;;5115908;28;20154;-65
2022/05/16 08:05:44;;;;;;;10.40;4.40;;;21.50;55.10;;;;;;5117858;28;20046;-66
2022/05/16 08:10:57;;;;;;;9.73;4.32;;;21.50;55.00;;;;;;5117751;27;20039;-64
2022/05/16 08:13:23;;;;;;;8.95;4.40;;;21.60;55.00;;;;;;5113508;27;20410;-64
2022/05/16 08:15:48;;;;;;;11.02;4.80;;;21.70;54.90;;;;;;5114056;28;20047;-65
2022/05/16 08:18:14;;;;;;;10.77;4.60;;;21.70;54.60;;;;;;5115247;28;20071;-64
2022/05/16 08:20:43;;;;;;;10.98;4.32;;;21.70;54.40;;;;;;5114647;28;20032;-65
2022/05/16 08:23:17;;;;;;;8.23;4.07;;;21.70;54.20;;;;;;5114809;28;20160;-64
2022/05/16 08:25:44;;;;;;;9.32;4.22;;;21.80;54.10;;;;;;5114734;28;20043;-64
2022/05/16 08:28:10;;;;;;;9.73;4.10;;;21.90;54.10;;;;;;5113703;28;20035;-65
2022/05/16 08:30:35;;;;;;;11.18;4.50;;;22.00;54.10;;;;;;5128851;28;20076;-64
2022/05/16 08:33:02;;;;;;;10.10;4.43;;;22.10;53.80;;;;;;5134889;27;20091;-65
2022/05/16 08:35:28;;;;;;;10.38;4.38;;;22.20;53.70;;;;;;5133565;28;20054;-65
2022/05/16 08:40:50;;;;;;;9.27;4.43;;;22.40;53.30;;;;;;5134783;28;20031;-65
2022/05/16 08:43:18;;;;;;;6.97;3.67;;;22.40;53.30;;;;;;5134863;28;20166;-65
2022/05/16 08:45:57;;;;;;;10.52;4.70;;;22.40;53.30;;;;;;5126507;27;20081;-65
2022/05/16 08:48:30;;;;;;;13.02;4.47;;;22.40;53.30;;;;;;5114483;28;20070;-64
2022/05/16 08:51:14;;;;;;;8.63;4.00;;;22.50;53.50;;;;;;5118237;28;20039;-64
2022/05/16 08:53:48;;;;;;;9.65;4.10;;;22.50;53.60;;;;;;5117753;28;20031;-64
2022/05/16 08:56:19;;;;;;;8.75;4.22;;;22.60;53.60;;;;;;5120345;27;20413;-65
2022/05/16 08:59:11;;;;;;;10.55;4.18;;;22.60;53.60;;;;;;5137326;27;20417;-65
2022/05/16 09:01:49;;;;;;;7.07;3.58;;;22.70;53.70;;;;;;5136517;27;20043;-65
2022/05/16 09:04:23;;;;;;;8.48;3.45;;;22.90;53.70;;;;;;5138691;27;20451;-64
2022/05/16 09:07:02;;;;;;;7.65;4.10;;;23.20;53.20;;;;;;5137414;27;20112;-65
2022/05/16 09:09:51;;;;;;;10.48;4.32;;;23.70;52.60;;;;;;5138436;27;20355;-65
2022/05/16 09:12:59;;;;;;;10.85;3.63;;;24.00;51.90;;;;;;5123021;27;20035;-64
2022/05/16 09:15:57;;;;;;;8.25;3.63;;;24.30;51.70;;;;;;5083760;28;20124;-65
2022/05/16 09:18:25;;;;;;;9.52;3.40;;;24.70;51.60;;;;;;5095279;28;20125;-65
2022/05/16 09:21:10;;;;;;;7.47;3.25;;;25.10;50.40;;;;;;5096156;28;20040;-65
2022/05/16 09:23:52;;;;;;;8.48;3.42;;;25.30;50.00;;;;;;5095828;28;20448;-65
2022/05/16 09:26:43;;;;;;;8.85;3.45;;;25.40;49.70;;;;;;5096016;28;20093;-65
2022/05/16 09:29:17;;;;;;;7.05;3.03;;;25.40;49.70;;;;;;5086648;28;20036;-64
2022/05/16 09:31:45;;;;;;;7.32;3.10;;;25.30;49.70;;;;;;5086128;28;20047;-65
2022/05/16 09:34:12;;;;;;;7.93;2.90;;;25.60;49.50;;;;;;5075251;28;20127;-65
2022/05/16 09:36:41;;;;;;;7.68;3.40;;;25.90;49.70;;;;;;5074907;28;20071;-65
2022/05/16 09:39:08;;;;;;;9.68;3.53;;;26.00;48.50;;;;;;5075525;28;20044;-65
2022/05/16 09:42:04;;;;;;;9.15;3.10;;;26.00;48.20;;;;;;5075326;28;20465;-65
2022/05/16 09:44:41;;;;;;;7.90;3.60;;;26.20;47.80;;;;;;5075370;28;20052;-65
2022/05/16 09:47:34;;;;;;;7.07;3.40;;;26.30;47.70;;;;;;5075201;28;20043;-65
2022/05/16 09:50:02;;;;;;;6.65;3.38;;;26.20;47.80;;;;;;5075194;28;20051;-65
2022/05/16 09:52:38;;;;;;;7.55;3.50;;;26.10;47.90;;;;;;5111809;28;20035;-65
2022/05/16 09:55:09;;;;;;;7.03;3.17;;;26.00;48.00;;;;;;5116533;28;20448;-65
2022/05/16 09:57:46;;;;;;;6.72;3.20;;;25.90;48.10;;;;;;5132185;27;20031;-65
2022/05/16 10:00:39;;;;;;;8.65;3.70;;;25.80;48.30;;;;;;5117010;28;20122;-65
2022/05/16 10:03:22;;;;;;;6.95;3.35;;;25.80;48.40;;;;;;5117289;28;20151;-65
2022/05/16 10:05:50;;;;;;;7.93;3.53;;;25.90;48.40;;;;;;5116963;28;20032;-65
2022/05/16 10:08:46;;;;;;;7.82;2.97;;;26.30;48.00;;;;;;5116572;28;20040;-63
2022/05/16 10:11:25;;;;;;;9.93;3.20;;;26.60;47.60;;;;;;5114749;27;20123;-63
2022/05/16 10:13:52;;;;;;;7.88;3.22;;;26.80;47.40;;;;;;5121398;27;20062;-63
2022/05/16 10:16:19;;;;;;;8.27;3.50;;;27.10;47.20;;;;;;5137494;27;20355;-63
2022/05/16 10:18:50;;;;;;;5.95;2.90;;;27.40;46.70;;;;;;5125005;27;20073;-63
2022/05/16 10:21:24;;;;;;;;;;;27.40;46.50;;;;;;5117043;28;20126;-63
2022/05/16 10:23:51;;;;;;;5.75;2.00;;;27.30;46.80;;;;;;5134647;27;19960;-64
2022/05/16 10:26:21;;;;;;;6.80;3.03;;;27.10;47.00;;;;;;5098506;28;20043;-63
2022/05/16 10:28:54;;;;;;;8.45;3.38;;;26.90;47.20;;;;;;5120447;27;20107;-63
2022/05/16 10:34:31;;;;;;;7.38;3.15;;;26.70;47.50;;;;;;5117600;27;20386;-66
2022/05/16 10:36:59;;;;;;;6.00;2.80;;;26.70;47.50;;;;;;5115873;28;20048;-65
2022/05/16 10:39:28;;;;;;;6.55;2.83;;;26.70;47.40;;;;;;5119724;27;20074;-67
2022/05/16 10:42:04;;;;;;;7.20;3.03;;;26.80;47.50;;;;;;5133871;27;20031;-66
2022/05/16 10:44:45;;;;;;;5.88;2.65;;;26.90;47.30;;;;;;5121968;27;20027;-64
2022/05/16 10:47:22;;;;;;;6.63;2.70;;;26.90;47.80;;;;;;5116001;27;20038;-64
2022/05/16 10:50:13;;;;;;;6.93;3.00;;;26.90;47.20;;;;;;5118488;27;20035;-64
2022/05/16 10:52:45;;;;;;;9.57;3.22;;;26.90;47.20;;;;;;5117320;27;20023;-66
2022/05/16 10:55:11;;;;;;;7.57;2.80;;;26.80;47.40;;;;;;5118271;27;20320;-66
2022/05/16 10:58:03;;;;;;;5.50;2.63;;;26.90;47.60;;;;;;5135037;27;20084;-66
2022/05/16 11:00:45;;;;;;;6.90;2.83;;;26.80;47.50;;;;;;5129556;27;20047;-66
2022/05/16 11:03:50;;;;;;;7.63;3.17;;;26.80;47.60;;;;;;5128651;27;20108;-66
2022/05/16 11:06:19;;;;;;;6.70;2.65;;;26.90;47.80;;;;;;5114321;28;20475;-66
2022/05/16 11:09:08;;;;;;;5.50;2.65;;;26.90;47.40;;;;;;5117331;27;20050;-66
2022/05/16 11:12:16;;;;;;;8.13;2.90;;;27.20;47.10;;;;;;5113549;28;20490;-66
2022/05/16 11:15:09;;;;;;;7.05;2.50;;;27.40;46.50;;;;;;5115889;27;20020;-66
2022/05/16 11:18:07;;;;;;;8.35;3.08;;;27.60;46.20;;;;;;5115312;28;20344;-65
2022/05/16 11:20:42;;;;;;;5.63;2.22;;;27.50;46.00;;;;;;5127926;27;20452;-65
2022/05/16 11:23:33;;;;;;;6.57;2.58;;;27.40;46.20;;;;;;5141265;27;20046;-62
2022/05/16 11:26:11;;;;;;;6.32;2.22;;;27.30;46.40;;;;;;5116330;27;20039;-63
2022/05/16 11:29:17;;;;;;;5.78;2.60;;;27.10;46.70;;;;;;5114693;28;20121;-63
2022/05/16 11:32:00;;;;;;;8.15;2.95;;;27.00;46.50;;;;;;5115417;27;20042;-63
2022/05/16 11:35:02;;;;;;;7.50;3.15;;;26.80;46.90;;;;;;5129684;27;20321;-63
2022/05/16 11:37:54;;;;;;;6.40;2.47;;;26.50;47.10;;;;;;5135257;27;20475;-65
2022/05/16 11:40:37;;;;;;;7.25;3.10;;;26.40;48.00;;;;;;5125678;27;20058;-65
2022/05/16 11:43:29;;;;;;;7.43;3.80;;;26.10;48.70;;;;;;5121932;28;20056;-64
2022/05/16 11:46:15;;;;;;;8.85;3.47;;;26.00;49.10;;;;;;5120079;28;20039;-65
2022/05/16 11:48:55;;;;;;;6.95;3.45;;;25.90;49.40;;;;;;5128578;27;20053;-65
2022/05/16 11:51:43;;;;;;;10.45;3.90;;;25.70;49.60;;;;;;5123349;28;20027;-65
2022/05/16 11:54:13;;;;;;;9.20;3.40;;;25.60;49.70;;;;;;5114251;28;20035;-66
2022/05/16 12:02:34;;;;;;;10.00;4.05;;;25.30;50.30;;;;;;5118511;27;20036;-66
2022/05/16 12:05:12;;;;;;;10.23;4.03;;;25.20;51.90;;;;;;5113584;28;20358;-65
2022/05/16 12:07:57;;;;;;;9.90;4.40;;;25.00;53.90;;;;;;5114418;28;20039;-64
2022/05/16 12:10:28;;;;;;;8.35;4.30;;;24.80;55.10;;;;;;5127718;28;20019;-65
2022/05/16 12:13:27;;;;;;;10.23;4.75;;;24.60;56.00;;;;;;5133529;27;20034;-64
2022/05/16 12:16:12;;;;;;;8.40;4.45;;;24.50;56.90;;;;;;5130511;27;20174;-64
2022/05/16 12:18:39;;;;;;;8.82;4.32;;;24.40;57.20;;;;;;5113984;28;20036;-64
2022/05/16 12:21:09;;;;;;;8.80;4.97;;;24.30;57.70;;;;;;5121115;28;20101;-65
2022/05/16 12:23:44;;;;;;;9.87;4.87;;;24.50;58.40;;;;;;5118330;27;20110;-64
2022/05/16 12:26:10;;;;;;;10.48;4.35;;;24.50;58.90;;;;;;5124505;27;20035;-64
2022/05/16 12:28:37;;;;;;;9.93;4.80;;;24.50;59.20;;;;;;5117355;27;20065;-64
2022/05/16 12:31:05;;;;;;;7.70;4.05;;;24.40;59.80;;;;;;5124369;27;20416;-64
2022/05/16 12:33:39;;;;;;;10.00;4.70;;;24.20;60.40;;;;;;5136582;27;20023;-64
2022/05/16 12:36:12;;;;;;;9.18;4.15;;;24.20;61.10;;;;;;5128947;27;20055;-63
2022/05/16 12:38:38;;;;;;;10.25;4.40;;;24.10;61.70;;;;;;5118402;27;20058;-64
2022/05/16 12:41:39;;;;;;;9.90;5.10;;;24.00;61.80;;;;;;5122574;27;20376;-64
2022/05/16 12:44:33;;;;;;;8.98;4.60;;;23.90;62.20;;;;;;5118443;27;20036;-64
2022/05/16 12:47:32;;;;;;;10.05;5.05;;;23.90;62.10;;;;;;5117803;27;20487;-64
2022/05/16 12:50:09;;;;;;;8.13;5.00;;;23.90;62.30;;;;;;5126255;27;20448;-63
2022/05/16 12:53:03;;;;;;;9.60;4.80;;;23.70;62.20;;;;;;5130592;27;20057;-63
2022/05/16 12:55:47;;;;;;;7.80;3.92;;;23.70;62.30;;;;;;5141652;27;20117;-64
2022/05/16 12:58:39;;;;;;;8.70;4.57;;;23.70;62.50;;;;;;5137626;27;20030;-63
2022/05/16 13:01:32;;;;;;;9.00;4.70;;;23.60;62.60;;;;;;5117445;27;20035;-64
2022/05/16 13:04:08;;;;;;;8.77;4.88;;;23.60;62.70;;;;;;5118649;27;20031;-64
2022/05/16 13:06:56;;;;;;;8.82;4.60;;;23.50;62.70;;;;;;5132848;27;20030;-64
2022/05/16 13:09:34;;;;;;;8.45;4.60;;;23.50;63.00;;;;;;5130320;27;20398;-64
2022/05/16 13:12:28;;;;;;;10.77;5.25;;;23.40;63.20;;;;;;5135682;27;20023;-64
2022/05/16 13:15:10;;;;;;;9.65;5.25;;;23.40;63.60;;;;;;5129435;27;20027;-63
2022/05/16 13:17:53;;;;;;;11.38;5.78;;;23.40;64.00;;;;;;5123771;27;20051;-64
2022/05/16 13:20:23;;;;;;;9.95;6.20;;;23.40;64.10;;;;;;5119497;27;20035;-65
2022/05/16 13:22:50;;;;;;;9.93;6.40;;;23.50;64.10;;;;;;5120270;27;20373;-64
2022/05/16 13:25:18;;;;;;;11.95;6.80;;;23.60;63.90;;;;;;5123560;27;20031;-64
2022/05/16 13:30:35;;;;;;;12.20;8.93;;;23.60;64.10;;;;;;5125710;27;20348;-64
2022/05/16 13:33:01;;;;;;;16.05;9.70;;;23.60;64.00;;;;;;5120663;27;20024;-64
2022/05/16 13:35:37;;;;;;;13.90;8.70;;;23.60;64.10;;;;;;5124515;27;20038;-64
2022/05/16 13:38:05;;;;;;;12.55;7.40;;;23.50;63.80;;;;;;5118477;27;20185;-65